createdAt,value
2019-04-16T00:00:56.901Z,1009.49
2019-04-16T00:01:56.865Z,1009.51
2019-04-16T00:02:56.845Z,1009.48
2019-04-16T00:03:56.800Z,1009.48
2019-04-16T00:04:57.563Z,1009.45
2019-04-16T00:05:58.904Z,1009.44
2019-04-16T00:06:56.702Z,1009.45
2019-04-16T00:07:56.665Z,1009.41
2019-04-16T00:08:57.386Z,1009.39
2019-04-16T00:09:56.606Z,1009.36
2019-04-16T00:10:56.575Z,1009.38
2019-04-16T00:11:56.544Z,1009.35
2019-04-16T00:12:56.506Z,1009.37
2019-04-16T00:13:56.465Z,1009.33
2019-04-16T00:14:56.430Z,1009.32
2019-04-16T00:15:56.404Z,1009.32
2019-04-16T00:16:56.368Z,1009.30
2019-04-16T00:17:56.327Z,1009.30
2019-04-16T00:18:58.109Z,1009.31
2019-04-16T00:19:56.264Z,1009.27
2019-04-16T00:20:56.237Z,1009.26
2019-04-16T00:21:56.202Z,1009.29
2019-04-16T00:22:56.158Z,1009.28
2019-04-16T00:23:56.368Z,1009.22
2019-04-16T00:24:56.101Z,1009.21
2019-04-16T00:25:56.520Z,1009.23
2019-04-16T00:26:59.287Z,1009.23
2019-04-16T00:27:59.516Z,1009.19
2019-04-16T00:28:55.971Z,1009.21
2019-04-16T00:29:55.927Z,1009.19
2019-04-16T00:30:55.898Z,1009.20
2019-04-16T00:31:55.867Z,1009.18
2019-04-16T00:32:55.855Z,1009.18
2019-04-16T00:33:55.865Z,1009.17
2019-04-16T00:34:55.762Z,1009.13
2019-04-16T00:35:55.728Z,1009.14
2019-04-16T00:36:55.693Z,1009.15
2019-04-16T00:37:55.659Z,1009.14
2019-04-16T00:38:55.644Z,1009.13
2019-04-16T00:39:56.873Z,1009.14
2019-04-16T00:40:55.555Z,1009.11
2019-04-16T00:41:55.532Z,1009.11
2019-04-16T00:42:55.499Z,1009.17
2019-04-16T00:43:55.581Z,1009.17
2019-04-16T00:44:55.607Z,1009.14
2019-04-16T00:45:55.620Z,1009.14
2019-04-16T00:46:55.364Z,1009.15
2019-04-16T00:47:55.498Z,1009.14
2019-04-16T00:48:55.295Z,1009.12
2019-04-16T00:49:57.852Z,1009.10
2019-04-16T00:50:55.224Z,1009.06
2019-04-16T00:51:55.201Z,1009.08
2019-04-16T00:52:55.164Z,1009.06
2019-04-16T00:53:55.129Z,1009.08
2019-04-16T00:54:55.088Z,1009.09
2019-04-16T00:55:55.058Z,1009.05
2019-04-16T00:56:55.015Z,1009.04
2019-04-16T00:57:54.979Z,1009.05
2019-04-16T00:58:54.953Z,1009.05
2019-04-16T00:59:56.275Z,1009.04
2019-04-16T01:00:54.881Z,1009.07
2019-04-16T01:01:54.850Z,1009.05
2019-04-16T01:02:54.830Z,1009.03
2019-04-16T01:03:54.788Z,1009.04
2019-04-16T01:04:54.758Z,1009.04
2019-04-16T01:05:54.718Z,1009.06
2019-04-16T01:06:54.685Z,1009.03
2019-04-16T01:07:54.645Z,1009.07
2019-04-16T01:08:55.285Z,1009.07
2019-04-16T01:09:54.581Z,1009.05
2019-04-16T01:10:54.551Z,1009.05
2019-04-16T01:11:54.514Z,1009.03
2019-04-16T01:12:54.477Z,1009.02
2019-04-16T01:13:55.675Z,1009.01
2019-04-16T01:14:58.927Z,1008.99
2019-04-16T01:15:54.386Z,1008.97
2019-04-16T01:16:54.345Z,1008.97
2019-04-16T01:17:54.309Z,1008.97
2019-04-16T01:18:54.276Z,1009.01
2019-04-16T01:19:54.240Z,1008.96
2019-04-16T01:20:54.207Z,1008.91
2019-04-16T01:21:54.172Z,1008.92
2019-04-16T01:22:54.143Z,1008.90
2019-04-16T01:23:54.103Z,1008.81
2019-04-16T01:24:54.072Z,1008.87
2019-04-16T01:25:55.543Z,1008.89
2019-04-16T01:26:55.467Z,1008.83
2019-04-16T01:27:53.974Z,1008.85
2019-04-16T01:28:53.936Z,1008.79
2019-04-16T01:29:53.901Z,1008.79
2019-04-16T01:30:53.870Z,1008.81
2019-04-16T01:31:53.832Z,1008.77
2019-04-16T01:32:53.801Z,1008.78
2019-04-16T01:33:53.774Z,1008.74
2019-04-16T01:34:53.747Z,1008.76
2019-04-16T01:35:53.715Z,1008.78
2019-04-16T01:36:54.329Z,1008.76
2019-04-16T01:37:56.526Z,1008.72
2019-04-16T01:39:07.605Z,1008.72
2019-04-16T01:39:53.562Z,1008.73
2019-04-16T01:40:53.531Z,1008.73
2019-04-16T01:41:53.518Z,1008.70
2019-04-16T01:42:54.672Z,1008.74
2019-04-16T01:43:54.304Z,1008.72
2019-04-16T01:44:53.390Z,1008.73
2019-04-16T01:45:53.358Z,1008.72
2019-04-16T01:46:53.328Z,1008.67
2019-04-16T01:47:53.293Z,1008.72
2019-04-16T01:48:53.258Z,1008.69
2019-04-16T01:49:53.228Z,1008.66
2019-04-16T01:50:53.181Z,1008.66
2019-04-16T01:51:53.157Z,1008.59
2019-04-16T01:52:53.121Z,1008.60
2019-04-16T01:53:53.086Z,1008.62
2019-04-16T01:54:54.774Z,1008.60
2019-04-16T01:55:56.742Z,1008.59
2019-04-16T01:56:52.985Z,1008.62
2019-04-16T01:57:52.952Z,1008.58
2019-04-16T01:58:52.911Z,1008.56
2019-04-16T01:59:52.883Z,1008.55
2019-04-16T02:00:52.843Z,1008.57
2019-04-16T02:01:52.816Z,1008.53
2019-04-16T02:02:52.790Z,1008.52
2019-04-16T02:03:52.738Z,1008.51
2019-04-16T02:04:52.804Z,1008.54
2019-04-16T02:05:54.885Z,1008.50
2019-04-16T02:06:54.314Z,1008.53
2019-04-16T02:07:52.614Z,1008.52
2019-04-16T02:08:52.583Z,1008.52
2019-04-16T02:09:52.537Z,1008.49
2019-04-16T02:10:52.499Z,1008.52
2019-04-16T02:11:52.469Z,1008.47
2019-04-16T02:12:52.433Z,1008.49
2019-04-16T02:13:52.408Z,1008.50
2019-04-16T02:14:52.377Z,1008.48
2019-04-16T02:15:53.410Z,1008.49
2019-04-16T02:16:55.730Z,1008.48
2019-04-16T02:17:52.267Z,1008.48
2019-04-16T02:18:52.229Z,1008.50
2019-04-16T02:19:52.203Z,1008.46
2019-04-16T02:20:52.162Z,1008.48
2019-04-16T02:21:52.129Z,1008.46
2019-04-16T02:22:52.091Z,1008.49
2019-04-16T02:23:52.063Z,1008.50
2019-04-16T02:24:52.033Z,1008.49
2019-04-16T02:25:52.022Z,1008.47
2019-04-16T02:26:54.584Z,1008.42
2019-04-16T02:27:54.247Z,1008.41
2019-04-16T02:28:51.893Z,1008.42
2019-04-16T02:29:53.676Z,1008.41
2019-04-16T02:30:51.820Z,1008.42
2019-04-16T02:31:52.545Z,1008.41
2019-04-16T02:32:51.754Z,1008.43
2019-04-16T02:33:51.705Z,1008.41
2019-04-16T02:34:51.674Z,1008.42
2019-04-16T02:35:51.641Z,1008.42
2019-04-16T02:36:51.612Z,1008.39
2019-04-16T02:37:51.573Z,1008.40
2019-04-16T02:38:53.248Z,1008.38
2019-04-16T02:39:51.511Z,1008.38
2019-04-16T02:40:53.081Z,1008.38
2019-04-16T02:41:56.984Z,1008.36
2019-04-16T02:42:51.401Z,1008.39
2019-04-16T02:43:51.371Z,1008.39
2019-04-16T02:44:51.340Z,1008.38
2019-04-16T02:45:56.723Z,1008.40
2019-04-16T02:46:51.270Z,1008.40
2019-04-16T02:47:51.232Z,1008.39
2019-04-16T02:48:51.782Z,1008.42
2019-04-16T02:49:56.442Z,1008.42
2019-04-16T02:50:51.125Z,1008.44
2019-04-16T02:51:51.097Z,1008.45
2019-04-16T02:52:52.529Z,1008.45
2019-04-16T02:53:54.445Z,1008.45
2019-04-16T02:54:50.991Z,1008.43
2019-04-16T02:55:50.964Z,1008.43
2019-04-16T02:56:52.249Z,1008.45
2019-04-16T02:57:50.888Z,1008.45
2019-04-16T02:58:50.850Z,1008.47
2019-04-16T02:59:50.819Z,1008.49
2019-04-16T03:00:50.861Z,1008.43
2019-04-16T03:01:51.891Z,1008.47
2019-04-16T03:02:53.610Z,1008.45
2019-04-16T03:03:50.732Z,1008.44
2019-04-16T03:04:50.639Z,1008.43
2019-04-16T03:05:50.605Z,1008.38
2019-04-16T03:06:50.583Z,1008.41
2019-04-16T03:07:50.532Z,1008.41
2019-04-16T03:08:50.513Z,1008.38
2019-04-16T03:10:00.543Z,1008.37
2019-04-16T03:10:50.444Z,1008.41
2019-04-16T03:11:50.398Z,1008.39
2019-04-16T03:12:52.120Z,1008.37
2019-04-16T03:13:52.864Z,1008.36
2019-04-16T03:14:50.295Z,1008.36
2019-04-16T03:15:50.259Z,1008.35
2019-04-16T03:16:50.235Z,1008.35
2019-04-16T03:17:50.192Z,1008.33
2019-04-16T03:18:50.167Z,1008.32
2019-04-16T03:19:51.307Z,1008.31
2019-04-16T03:20:52.493Z,1008.31
2019-04-16T03:21:50.056Z,1008.31
2019-04-16T03:22:50.020Z,1008.29
2019-04-16T03:23:49.997Z,1008.30
2019-04-16T03:24:49.951Z,1008.33
2019-04-16T03:25:49.918Z,1008.32
2019-04-16T03:26:50.400Z,1008.29
2019-04-16T03:27:51.552Z,1008.25
2019-04-16T03:28:49.807Z,1008.32
2019-04-16T03:29:49.784Z,1008.34
2019-04-16T03:30:49.753Z,1008.31
2019-04-16T03:31:57.679Z,1008.28
2019-04-16T03:32:49.699Z,1008.30
2019-04-16T03:33:51.041Z,1008.30
2019-04-16T03:34:50.561Z,1008.27
2019-04-16T03:35:49.568Z,1008.30
2019-04-16T03:36:49.533Z,1008.30
2019-04-16T03:37:49.499Z,1008.32
2019-04-16T03:38:49.462Z,1008.30
2019-04-16T03:39:49.430Z,1008.31
2019-04-16T03:40:49.389Z,1008.33
2019-04-16T03:41:49.353Z,1008.28
2019-04-16T03:42:49.345Z,1008.27
2019-04-16T03:43:49.279Z,1008.29
2019-04-16T03:44:49.250Z,1008.27
2019-04-16T03:45:49.222Z,1008.26
2019-04-16T03:46:49.194Z,1008.20
2019-04-16T03:47:51.426Z,1008.22
2019-04-16T03:48:49.113Z,1008.20
2019-04-16T03:49:49.074Z,1008.21
2019-04-16T03:50:49.044Z,1008.15
2019-04-16T03:51:49.010Z,1008.21
2019-04-16T03:52:48.983Z,1008.20
2019-04-16T03:53:49.646Z,1008.19
2019-04-16T03:54:53.796Z,1008.19
2019-04-16T03:55:48.870Z,1008.15
2019-04-16T03:56:48.829Z,1008.16
2019-04-16T03:57:48.799Z,1008.14
2019-04-16T03:58:48.763Z,1008.15
2019-04-16T03:59:48.720Z,1008.12
2019-04-16T04:00:48.709Z,1008.15
2019-04-16T04:01:48.654Z,1008.16
2019-04-16T04:02:54.229Z,1008.13
2019-04-16T04:03:48.584Z,1008.14
2019-04-16T04:04:48.545Z,1008.11
2019-04-16T04:05:48.519Z,1008.15
2019-04-16T04:06:48.479Z,1008.11
2019-04-16T04:07:48.441Z,1008.11
2019-04-16T04:08:51.612Z,1008.09
2019-04-16T04:09:48.375Z,1008.05
2019-04-16T04:10:48.345Z,1008.07
2019-04-16T04:11:48.300Z,1008.05
2019-04-16T04:12:48.278Z,1008.05
2019-04-16T04:13:50.224Z,1008.09
2019-04-16T04:14:48.206Z,1008.05
2019-04-16T04:15:48.161Z,1008.05
2019-04-16T04:16:48.125Z,1008.08
2019-04-16T04:17:48.090Z,1008.08
2019-04-16T04:18:48.057Z,1008.07
2019-04-16T04:19:48.024Z,1008.04
2019-04-16T04:20:50.607Z,1008.05
2019-04-16T04:21:50.699Z,1008.06
2019-04-16T04:22:47.920Z,1008.03
2019-04-16T04:23:47.885Z,1008.07
2019-04-16T04:24:47.842Z,1008.04
2019-04-16T04:25:47.815Z,1008.03
2019-04-16T04:26:47.773Z,1008.08
2019-04-16T04:27:47.861Z,1008.03
2019-04-16T04:28:48.559Z,1008.06
2019-04-16T04:29:47.666Z,1008.07
2019-04-16T04:30:48.979Z,1008.08
2019-04-16T04:31:47.592Z,1008.08
2019-04-16T04:32:47.900Z,1008.08
2019-04-16T04:33:47.519Z,1008.10
2019-04-16T04:34:48.738Z,1008.08
2019-04-16T04:35:47.458Z,1008.09
2019-04-16T04:36:47.422Z,1008.05
2019-04-16T04:37:47.406Z,1008.09
2019-04-16T04:38:47.356Z,1008.07
2019-04-16T04:39:47.329Z,1008.05
2019-04-16T04:40:50.422Z,1008.08
2019-04-16T04:41:47.242Z,1008.06
2019-04-16T04:42:47.219Z,1008.06
2019-04-16T04:43:47.176Z,1008.07
2019-04-16T04:44:47.307Z,1008.05
2019-04-16T04:45:47.175Z,1008.01
2019-04-16T04:46:47.145Z,1008.01
2019-04-16T04:47:51.026Z,1008.00
2019-04-16T04:48:46.992Z,1008.01
2019-04-16T04:49:46.968Z,1007.99
2019-04-16T04:50:46.932Z,1008.02
2019-04-16T04:51:46.893Z,1007.99
2019-04-16T04:52:46.953Z,1008.06
2019-04-16T04:53:47.465Z,1008.02
2019-04-16T04:54:46.779Z,1008.04
2019-04-16T04:55:46.747Z,1008.09
2019-04-16T04:56:46.703Z,1008.04
2019-04-16T04:57:46.676Z,1008.02
2019-04-16T04:58:46.645Z,1008.05
2019-04-16T04:59:46.604Z,1008.09
2019-04-16T05:00:46.567Z,1008.04
2019-04-16T05:01:46.547Z,1008.05
2019-04-16T05:02:46.511Z,1008.06
2019-04-16T05:03:47.479Z,1008.07
2019-04-16T05:04:46.432Z,1008.13
2019-04-16T05:05:46.387Z,1008.17
2019-04-16T05:06:46.359Z,1008.13
2019-04-16T05:07:46.327Z,1008.14
2019-04-16T05:08:46.288Z,1008.17
2019-04-16T05:09:46.245Z,1008.15
2019-04-16T05:10:58.352Z,1008.17
2019-04-16T05:11:48.383Z,1008.17
2019-04-16T05:12:46.147Z,1008.14
2019-04-16T05:13:46.114Z,1008.15
2019-04-16T05:14:46.075Z,1008.15
2019-04-16T05:15:46.042Z,1008.12
2019-04-16T05:16:46.009Z,1008.11
2019-04-16T05:17:45.968Z,1008.13
2019-04-16T05:18:45.934Z,1008.14
2019-04-16T05:19:45.915Z,1008.11
2019-04-16T05:20:46.958Z,1008.16
2019-04-16T05:21:49.609Z,1008.12
2019-04-16T05:22:45.831Z,1008.17
2019-04-16T05:23:45.838Z,1008.17
2019-04-16T05:24:45.718Z,1008.14
2019-04-16T05:25:45.678Z,1008.14
2019-04-16T05:26:45.668Z,1008.16
2019-04-16T05:27:45.616Z,1008.16
2019-04-16T05:28:45.810Z,1008.13
2019-04-16T05:29:48.618Z,1008.15
2019-04-16T05:30:45.514Z,1008.13
2019-04-16T05:31:45.488Z,1008.15
2019-04-16T05:32:45.489Z,1008.08
2019-04-16T05:33:45.413Z,1008.08
2019-04-16T05:34:45.370Z,1008.09
2019-04-16T05:35:45.360Z,1008.08
2019-04-16T05:36:47.779Z,1008.08
2019-04-16T05:37:45.261Z,1008.07
2019-04-16T05:38:45.226Z,1008.09
2019-04-16T05:39:45.196Z,1008.14
2019-04-16T05:40:45.160Z,1008.18
2019-04-16T05:41:45.115Z,1008.14
2019-04-16T05:42:45.076Z,1008.21
2019-04-16T05:43:45.055Z,1008.23
2019-04-16T05:44:45.013Z,1008.28
2019-04-16T05:45:44.985Z,1008.26
2019-04-16T05:46:46.833Z,1008.29
2019-04-16T05:47:48.727Z,1008.32
2019-04-16T05:48:44.874Z,1008.30
2019-04-16T05:49:44.840Z,1008.36
2019-04-16T05:50:44.802Z,1008.34
2019-04-16T05:51:44.774Z,1008.32
2019-04-16T05:52:44.725Z,1008.32
2019-04-16T05:53:44.702Z,1008.32
2019-04-16T05:54:45.363Z,1008.32
2019-04-16T05:55:49.685Z,1008.39
2019-04-16T05:56:44.590Z,1008.37
2019-04-16T05:57:44.558Z,1008.37
2019-04-16T05:58:44.516Z,1008.38
2019-04-16T05:59:44.490Z,1008.41
2019-04-16T06:00:44.452Z,1008.38
2019-04-16T06:01:45.424Z,1008.43
2019-04-16T06:02:44.376Z,1008.41
2019-04-16T06:03:44.351Z,1008.36
2019-04-16T06:04:44.328Z,1008.38
2019-04-16T06:05:44.276Z,1008.38
2019-04-16T06:06:44.241Z,1008.40
2019-04-16T06:07:44.211Z,1008.42
2019-04-16T06:08:44.170Z,1008.38
2019-04-16T06:09:44.647Z,1008.38
2019-04-16T06:10:44.099Z,1008.38
2019-04-16T06:11:44.068Z,1008.42
2019-04-16T06:12:44.031Z,1008.34
2019-04-16T06:13:44.409Z,1008.33
2019-04-16T06:14:46.473Z,1008.35
2019-04-16T06:15:43.926Z,1008.39
2019-04-16T06:16:43.887Z,1008.37
2019-04-16T06:17:43.857Z,1008.33
2019-04-16T06:18:43.818Z,1008.34
2019-04-16T06:19:46.635Z,1008.31
2019-04-16T06:20:43.748Z,1008.28
2019-04-16T06:21:43.729Z,1008.24
2019-04-16T06:22:43.680Z,1008.27
2019-04-16T06:23:43.709Z,1008.25
2019-04-16T06:24:43.608Z,1008.25
2019-04-16T06:25:43.702Z,1008.28
2019-04-16T06:26:44.511Z,1008.25
2019-04-16T06:27:43.672Z,1008.28
2019-04-16T06:28:43.464Z,1008.25
2019-04-16T06:29:43.548Z,1008.24
2019-04-16T06:30:43.397Z,1008.29
2019-04-16T06:31:43.361Z,1008.27
2019-04-16T06:32:43.348Z,1008.26
2019-04-16T06:33:43.300Z,1008.23
2019-04-16T06:34:43.259Z,1008.25
2019-04-16T06:35:43.949Z,1008.29
2019-04-16T06:36:43.192Z,1008.26
2019-04-16T06:37:45.621Z,1008.25
2019-04-16T06:38:43.119Z,1008.22
2019-04-16T06:39:43.102Z,1008.22
2019-04-16T06:40:43.052Z,1008.18
2019-04-16T06:41:47.810Z,1008.18
2019-04-16T06:42:42.989Z,1008.17
2019-04-16T06:43:42.953Z,1008.14
2019-04-16T06:44:42.922Z,1008.10
2019-04-16T06:45:42.882Z,1008.10
2019-04-16T06:46:42.842Z,1008.09
2019-04-16T06:47:42.899Z,1008.08
2019-04-16T06:48:46.020Z,1008.08
2019-04-16T06:49:42.733Z,1007.99
2019-04-16T06:50:42.703Z,1008.03
2019-04-16T06:51:44.575Z,1008.00
2019-04-16T06:52:42.634Z,1007.95
2019-04-16T06:53:42.599Z,1008.00
2019-04-16T06:54:45.343Z,1007.96
2019-04-16T06:55:43.020Z,1007.96
2019-04-16T06:56:42.498Z,1007.92
2019-04-16T06:57:43.026Z,1007.93
2019-04-16T06:58:50.792Z,1007.90
2019-04-16T06:59:42.395Z,1007.89
2019-04-16T07:00:42.358Z,1007.83
2019-04-16T07:01:42.472Z,1007.85
2019-04-16T07:02:45.582Z,1007.85
2019-04-16T07:03:42.386Z,1007.83
2019-04-16T07:04:42.220Z,1007.78
2019-04-16T07:05:42.185Z,1007.73
2019-04-16T07:06:43.721Z,1007.78
2019-04-16T07:07:46.060Z,1007.73
2019-04-16T07:08:42.143Z,1007.77
2019-04-16T07:09:42.360Z,1007.72
2019-04-16T07:10:44.635Z,1007.74
2019-04-16T07:11:53.734Z,1007.74
2019-04-16T07:12:42.014Z,1007.74
2019-04-16T07:13:42.901Z,1007.72
2019-04-16T07:14:41.885Z,1007.69
2019-04-16T07:15:41.849Z,1007.75
2019-04-16T07:16:41.815Z,1007.74
2019-04-16T07:17:41.775Z,1007.77
2019-04-16T07:18:41.747Z,1007.76
2019-04-16T07:19:42.170Z,1007.76
2019-04-16T07:20:42.255Z,1007.75
2019-04-16T07:21:41.646Z,1007.74
2019-04-16T07:22:41.662Z,1007.82
2019-04-16T07:23:45.395Z,1007.83
2019-04-16T07:24:41.575Z,1007.87
2019-04-16T07:25:43.577Z,1007.92
2019-04-16T07:26:46.452Z,1007.92
2019-04-16T07:27:41.617Z,1007.94
2019-04-16T07:28:41.398Z,1007.94
2019-04-16T07:29:41.446Z,1007.95
2019-04-16T07:30:41.400Z,1007.87
2019-04-16T07:31:41.345Z,1007.90
2019-04-16T07:32:41.262Z,1007.92
2019-04-16T07:33:41.230Z,1007.90
2019-04-16T07:34:41.209Z,1007.94
2019-04-16T07:35:41.163Z,1007.90
2019-04-16T07:36:41.132Z,1007.92
2019-04-16T07:37:41.103Z,1007.91
2019-04-16T07:38:41.071Z,1007.87
2019-04-16T07:39:41.032Z,1007.82
2019-04-16T07:40:40.997Z,1007.82
2019-04-16T07:41:43.292Z,1007.87
2019-04-16T07:42:51.767Z,1007.87
2019-04-16T07:43:40.891Z,1007.88
2019-04-16T07:44:40.863Z,1007.90
2019-04-16T07:45:40.831Z,1007.87
2019-04-16T07:46:40.798Z,1007.92
2019-04-16T07:47:40.762Z,1007.90
2019-04-16T07:48:40.737Z,1007.88
2019-04-16T07:49:40.705Z,1007.88
2019-04-16T07:50:40.662Z,1007.89
2019-04-16T07:51:40.632Z,1007.96
2019-04-16T07:52:42.078Z,1007.93
2019-04-16T07:53:40.656Z,1007.92
2019-04-16T07:54:40.518Z,1007.92
2019-04-16T07:55:40.488Z,1007.87
2019-04-16T07:56:40.475Z,1007.85
2019-04-16T07:57:40.443Z,1007.84
2019-04-16T07:58:40.459Z,1007.90
2019-04-16T07:59:40.369Z,1007.86
2019-04-16T08:00:41.387Z,1007.91
2019-04-16T08:01:40.313Z,1007.84
2019-04-16T08:02:40.267Z,1007.83
2019-04-16T08:03:40.238Z,1007.88
2019-04-16T08:04:40.205Z,1007.83
2019-04-16T08:05:41.141Z,1007.81
2019-04-16T08:06:40.132Z,1007.83
2019-04-16T08:07:40.099Z,1007.79
2019-04-16T08:08:40.063Z,1007.86
2019-04-16T08:09:40.043Z,1007.80
2019-04-16T08:10:39.996Z,1007.81
2019-04-16T08:11:40.004Z,1007.85
2019-04-16T08:12:42.015Z,1007.88
2019-04-16T08:13:39.895Z,1007.85
2019-04-16T08:14:39.934Z,1007.84
2019-04-16T08:15:39.838Z,1007.87
2019-04-16T08:16:47.207Z,1007.84
2019-04-16T08:17:39.758Z,1007.80
2019-04-16T08:18:39.739Z,1007.78
2019-04-16T08:19:39.701Z,1007.81
2019-04-16T08:20:39.674Z,1007.77
2019-04-16T08:21:40.663Z,1007.78
2019-04-16T08:22:40.031Z,1007.77
2019-04-16T08:23:39.719Z,1007.74
2019-04-16T08:24:39.538Z,1007.69
2019-04-16T08:25:39.505Z,1007.67
2019-04-16T08:26:41.582Z,1007.65
2019-04-16T08:27:39.446Z,1007.66
2019-04-16T08:28:39.408Z,1007.63
2019-04-16T08:29:39.387Z,1007.64
2019-04-16T08:30:39.627Z,1007.68
2019-04-16T08:31:40.818Z,1007.63
2019-04-16T08:32:39.279Z,1007.66
2019-04-16T08:33:39.256Z,1007.62
2019-04-16T08:34:39.219Z,1007.63
2019-04-16T08:35:39.180Z,1007.63
2019-04-16T08:36:39.164Z,1007.61
2019-04-16T08:37:48.966Z,1007.61
2019-04-16T08:38:39.086Z,1007.56
2019-04-16T08:39:39.811Z,1007.56
2019-04-16T08:40:39.022Z,1007.54
2019-04-16T08:41:38.985Z,1007.53
2019-04-16T08:42:44.612Z,1007.52
2019-04-16T08:43:38.946Z,1007.56
2019-04-16T08:44:38.898Z,1007.55
2019-04-16T08:45:39.875Z,1007.55
2019-04-16T08:46:40.136Z,1007.53
2019-04-16T08:47:38.795Z,1007.54
2019-04-16T08:48:38.765Z,1007.53
2019-04-16T08:49:38.740Z,1007.54
2019-04-16T08:50:38.705Z,1007.54
2019-04-16T08:51:38.666Z,1007.52
2019-04-16T08:52:41.683Z,1007.52
2019-04-16T08:53:38.596Z,1007.50
2019-04-16T08:54:38.602Z,1007.55
2019-04-16T08:55:38.546Z,1007.57
2019-04-16T08:56:38.512Z,1007.60
2019-04-16T08:57:38.498Z,1007.58
2019-04-16T08:58:39.143Z,1007.62
2019-04-16T08:59:39.510Z,1007.62
2019-04-16T09:00:38.388Z,1007.62
2019-04-16T09:01:38.355Z,1007.63
2019-04-16T09:02:38.326Z,1007.60
2019-04-16T09:03:38.290Z,1007.63
2019-04-16T09:04:38.263Z,1007.57
2019-04-16T09:05:41.250Z,1007.60
2019-04-16T09:06:38.385Z,1007.65
2019-04-16T09:07:38.163Z,1007.59
2019-04-16T09:08:38.138Z,1007.59
2019-04-16T09:09:38.096Z,1007.56
2019-04-16T09:10:38.078Z,1007.58
2019-04-16T09:11:38.040Z,1007.56
2019-04-16T09:12:40.738Z,1007.56
2019-04-16T09:13:40.958Z,1007.55
2019-04-16T09:14:37.950Z,1007.52
2019-04-16T09:15:37.932Z,1007.47
2019-04-16T09:16:37.884Z,1007.51
2019-04-16T09:17:37.861Z,1007.49
2019-04-16T09:18:37.826Z,1007.49
2019-04-16T09:19:37.787Z,1007.49
2019-04-16T09:20:38.534Z,1007.44
2019-04-16T09:21:43.249Z,1007.44
2019-04-16T09:22:48.715Z,1007.43
2019-04-16T09:23:37.663Z,1007.39
2019-04-16T09:24:41.393Z,1007.45
2019-04-16T09:25:37.614Z,1007.44
2019-04-16T09:26:37.583Z,1007.45
2019-04-16T09:27:37.549Z,1007.43
2019-04-16T09:28:37.513Z,1007.45
2019-04-16T09:29:39.146Z,1007.38
2019-04-16T09:30:37.458Z,1007.43
2019-04-16T09:31:37.426Z,1007.42
2019-04-16T09:32:37.394Z,1007.46
2019-04-16T09:33:37.391Z,1007.50
2019-04-16T09:34:39.553Z,1007.43
2019-04-16T09:35:37.302Z,1007.42
2019-04-16T09:36:37.282Z,1007.44
2019-04-16T09:37:37.239Z,1007.45
2019-04-16T09:38:37.220Z,1007.48
2019-04-16T09:39:37.179Z,1007.45
2019-04-16T09:40:37.144Z,1007.42
2019-04-16T09:41:37.360Z,1007.49
2019-04-16T09:42:37.092Z,1007.50
2019-04-16T09:43:40.132Z,1007.48
2019-04-16T09:44:37.029Z,1007.49
2019-04-16T09:45:38.015Z,1007.45
2019-04-16T09:46:52.434Z,1007.44
2019-04-16T09:47:37.111Z,1007.45
2019-04-16T09:48:36.916Z,1007.42
2019-04-16T09:49:37.572Z,1007.44
2019-04-16T09:50:42.962Z,1007.42
2019-04-16T09:51:36.835Z,1007.39
2019-04-16T09:52:36.800Z,1007.41
2019-04-16T09:53:40.111Z,1007.39
2019-04-16T09:54:36.755Z,1007.43
2019-04-16T09:55:36.709Z,1007.45
2019-04-16T09:56:36.676Z,1007.46
2019-04-16T09:57:36.649Z,1007.47
2019-04-16T09:58:37.750Z,1007.44
2019-04-16T09:59:36.586Z,1007.46
2019-04-16T10:00:36.561Z,1007.42
2019-04-16T10:01:36.539Z,1007.46
2019-04-16T10:02:36.511Z,1007.48
2019-04-16T10:03:36.470Z,1007.48
2019-04-16T10:04:37.074Z,1007.54
2019-04-16T10:05:36.420Z,1007.55
2019-04-16T10:06:36.409Z,1007.52
2019-04-16T10:07:39.811Z,1007.43
2019-04-16T10:08:36.344Z,1007.44
2019-04-16T10:09:36.324Z,1007.46
2019-04-16T10:10:36.301Z,1007.47
2019-04-16T10:11:36.467Z,1007.47
2019-04-16T10:12:36.259Z,1007.41
2019-04-16T10:13:36.511Z,1007.43
2019-04-16T10:14:36.190Z,1007.43
2019-04-16T10:15:36.170Z,1007.40
2019-04-16T10:16:36.143Z,1007.41
2019-04-16T10:17:36.117Z,1007.42
2019-04-16T10:18:36.158Z,1007.38
2019-04-16T10:19:36.085Z,1007.38
2019-04-16T10:20:36.043Z,1007.39
2019-04-16T10:21:36.025Z,1007.41
2019-04-16T10:22:35.982Z,1007.38
2019-04-16T10:23:35.961Z,1007.35
2019-04-16T10:24:35.969Z,1007.35
2019-04-16T10:25:35.921Z,1007.33
2019-04-16T10:26:35.901Z,1007.32
2019-04-16T10:27:35.897Z,1007.34
2019-04-16T10:28:37.062Z,1007.38
2019-04-16T10:29:35.841Z,1007.31
2019-04-16T10:30:35.819Z,1007.25
2019-04-16T10:31:35.771Z,1007.28
2019-04-16T10:32:35.774Z,1007.32
2019-04-16T10:33:35.727Z,1007.33
2019-04-16T10:34:36.424Z,1007.28
2019-04-16T10:35:35.679Z,1007.25
2019-04-16T10:36:37.942Z,1007.27
2019-04-16T10:37:35.631Z,1007.27
2019-04-16T10:38:35.626Z,1007.26
2019-04-16T10:39:35.626Z,1007.28
2019-04-16T10:40:35.584Z,1007.25
2019-04-16T10:41:35.542Z,1007.27
2019-04-16T10:42:35.532Z,1007.27
2019-04-16T10:43:44.385Z,1007.22
2019-04-16T10:44:35.483Z,1007.28
2019-04-16T10:45:35.439Z,1007.30
2019-04-16T10:46:35.449Z,1007.22
2019-04-16T10:47:35.811Z,1007.21
2019-04-16T10:48:35.416Z,1007.20
2019-04-16T10:49:35.361Z,1007.19
2019-04-16T10:50:35.323Z,1007.21
2019-04-16T10:51:35.325Z,1007.16
2019-04-16T10:52:35.277Z,1007.17
2019-04-16T10:53:35.317Z,1007.20
2019-04-16T10:54:37.309Z,1007.14
2019-04-16T10:55:35.240Z,1007.16
2019-04-16T10:56:35.206Z,1007.21
2019-04-16T10:57:38.310Z,1007.22
2019-04-16T10:58:35.165Z,1007.24
2019-04-16T10:59:35.146Z,1007.27
2019-04-16T11:00:35.122Z,1007.32
2019-04-16T11:01:35.337Z,1007.25
2019-04-16T11:02:35.103Z,1007.29
2019-04-16T11:03:35.460Z,1007.26
2019-04-16T11:04:35.019Z,1007.24
2019-04-16T11:05:34.997Z,1007.29
2019-04-16T11:06:35.008Z,1007.28
2019-04-16T11:07:34.949Z,1007.25
2019-04-16T11:08:34.962Z,1007.22
2019-04-16T11:09:34.895Z,1007.19
2019-04-16T11:10:34.896Z,1007.23
2019-04-16T11:11:34.925Z,1007.22
2019-04-16T11:12:34.912Z,1007.23
2019-04-16T11:13:34.805Z,1007.19
2019-04-16T11:14:34.782Z,1007.20
2019-04-16T11:15:34.760Z,1007.14
2019-04-16T11:16:36.092Z,1007.18
2019-04-16T11:17:34.739Z,1007.21
2019-04-16T11:18:34.724Z,1007.28
2019-04-16T11:19:34.692Z,1007.17
2019-04-16T11:20:34.654Z,1007.22
2019-04-16T11:21:34.639Z,1007.19
2019-04-16T11:22:34.634Z,1007.19
2019-04-16T11:23:34.677Z,1007.16
2019-04-16T11:24:34.617Z,1007.20
2019-04-16T11:25:34.540Z,1007.25
2019-04-16T11:26:34.515Z,1007.20
2019-04-16T11:27:34.500Z,1007.14
2019-04-16T11:28:34.507Z,1007.20
2019-04-16T11:29:34.458Z,1007.20
2019-04-16T11:30:34.425Z,1007.11
2019-04-16T11:31:34.405Z,1007.17
2019-04-16T11:32:39.049Z,1007.15
2019-04-16T11:33:34.359Z,1007.18
2019-04-16T11:34:34.353Z,1007.19
2019-04-16T11:35:34.442Z,1007.16
2019-04-16T11:36:34.316Z,1007.08
2019-04-16T11:37:36.271Z,1007.14
2019-04-16T11:38:34.254Z,1007.12
2019-04-16T11:39:34.222Z,1007.20
2019-04-16T11:40:34.210Z,1007.16
2019-04-16T11:41:34.209Z,1007.15
2019-04-16T11:42:34.212Z,1007.17
2019-04-16T11:43:34.179Z,1007.18
2019-04-16T11:44:34.137Z,1007.20
2019-04-16T11:45:34.095Z,1007.13
2019-04-16T11:46:34.094Z,1007.13
2019-04-16T11:47:34.868Z,1007.18
2019-04-16T11:48:37.251Z,1007.14
2019-04-16T11:49:34.027Z,1007.12
2019-04-16T11:50:36.032Z,1007.14
2019-04-16T11:51:33.977Z,1007.09
2019-04-16T11:52:33.986Z,1007.07
2019-04-16T11:53:33.918Z,1007.07
2019-04-16T11:54:33.903Z,1007.06
2019-04-16T11:55:33.895Z,1007.07
2019-04-16T11:56:33.900Z,1007.14
2019-04-16T11:57:34.125Z,1007.12
2019-04-16T11:58:33.811Z,1007.10
2019-04-16T11:59:33.843Z,1007.14
2019-04-16T12:00:33.802Z,1007.10
2019-04-16T12:01:33.803Z,1007.03
2019-04-16T12:02:33.735Z,1007.10
2019-04-16T12:03:36.517Z,1007.13
2019-04-16T12:04:33.672Z,1007.11
2019-04-16T12:05:33.687Z,1007.12